Time;durP1;ratioP1;P1;durP2;ratioP2;P2;SDS_P1;SDS_P2;PMS_P1;PMS_P2;Temp;Humidity;BMP_temperature;BMP_pressure;BME280_temperature;BME280_humidity;BME280_pressure;Samples;Min_cycle;Max_cycle;Signal;HPM_P1;HPM_P2
2022/08/21 00:00:55;;;;;;;0.50;0.40;;;17.30;99.90;;;;;;5093725;28;20471;-83
2022/08/21 00:03:22;;;;;;;0.80;0.73;;;17.20;99.90;;;;;;5093415;28;20970;-84
2022/08/21 00:05:51;;;;;;;0.63;0.53;;;17.10;99.90;;;;;;5093616;28;20475;-83
2022/08/21 00:08:19;;;;;;;3.10;0.63;;;17.10;99.90;;;;;;5093658;28;20444;-84
2022/08/21 00:10:47;;;;;;;0.30;0.30;;;17.00;99.90;;;;;;5093288;28;20439;-84
2022/08/21 00:13:14;;;;;;;0.50;0.47;;;17.10;99.90;;;;;;5093267;28;20840;-83
2022/08/21 00:15:42;;;;;;;1.90;0.50;;;17.10;99.90;;;;;;5093566;28;20455;-83
2022/08/21 00:18:11;;;;;;;0.47;0.43;;;17.10;99.90;;;;;;5093580;28;20452;-83
2022/08/21 00:20:40;;;;;;;0.70;0.50;;;17.00;99.90;;;;;;5093486;28;20451;-84
2022/08/21 00:23:08;;;;;;;0.40;0.40;;;17.00;99.90;;;;;;5093505;28;20459;-83
2022/08/21 00:25:35;;;;;;;0.50;0.50;;;17.10;99.90;;;;;;5093019;28;20495;-83
2022/08/21 00:28:02;;;;;;;0.50;0.40;;;17.10;99.90;;;;;;5093418;28;20448;-83
2022/08/21 00:30:30;;;;;;;1.17;0.53;;;17.00;99.90;;;;;;5093220;28;20428;-83
2022/08/21 00:32:58;;;;;;;1.07;0.50;;;17.00;99.90;;;;;;5093120;28;20474;-84
2022/08/21 00:35:29;;;;;;;0.60;0.50;;;17.00;99.90;;;;;;5093323;28;20444;-83
2022/08/21 00:37:56;;;;;;;0.50;0.40;;;16.90;99.90;;;;;;5096929;28;20443;-83
2022/08/21 00:40:28;;;;;;;0.50;0.40;;;16.90;99.90;;;;;;5093397;28;20444;-84
2022/08/21 00:42:55;;;;;;;0.60;0.60;;;16.80;99.90;;;;;;5093352;28;20439;-83
2022/08/21 00:45:22;;;;;;;3.03;0.67;;;16.80;99.90;;;;;;5093120;28;20479;-83
2022/08/21 00:47:49;;;;;;;0.73;0.60;;;16.80;99.90;;;;;;5093273;28;20465;-83
2022/08/21 00:50:16;;;;;;;2.63;0.50;;;16.70;99.90;;;;;;5093252;28;20822;-83
2022/08/21 00:52:44;;;;;;;0.80;0.50;;;16.70;99.90;;;;;;5092902;28;20463;-83
2022/08/21 00:55:12;;;;;;;1.03;0.60;;;16.60;99.90;;;;;;5092931;28;20447;-84
2022/08/21 00:57:45;;;;;;;0.40;0.37;;;16.50;99.90;;;;;;5092992;28;20437;-83
2022/08/21 01:00:16;;;;;;;0.60;0.53;;;16.50;99.90;;;;;;5093292;28;20432;-84
2022/08/21 01:02:43;;;;;;;0.43;0.40;;;16.40;99.90;;;;;;5093114;28;20463;-83
2022/08/21 01:05:11;;;;;;;0.60;0.50;;;16.40;99.90;;;;;;5093025;28;20451;-83
2022/08/21 01:07:38;;;;;;;0.60;0.60;;;16.40;99.90;;;;;;5093136;28;20452;-83
2022/08/21 01:10:07;;;;;;;0.83;0.60;;;16.40;99.90;;;;;;5092790;28;20448;-83
2022/08/21 01:12:35;;;;;;;0.50;0.50;;;16.40;99.90;;;;;;5096379;28;20483;-83
2022/08/21 01:15:06;;;;;;;0.70;0.40;;;16.40;99.90;;;;;;5096573;28;20443;-84
2022/08/21 01:17:34;;;;;;;0.30;0.30;;;16.40;99.90;;;;;;5096890;28;20428;-83
2022/08/21 01:20:01;;;;;;;1.40;0.53;;;16.40;99.90;;;;;;5096522;28;20459;-83
2022/08/21 01:22:29;;;;;;;1.07;0.60;;;16.40;99.90;;;;;;5096360;28;21001;-83
2022/08/21 01:24:56;;;;;;;0.60;0.60;;;16.40;99.90;;;;;;5096250;28;21009;-83
2022/08/21 01:27:23;;;;;;;1.40;0.50;;;16.40;99.90;;;;;;5096572;28;20475;-84
2022/08/21 01:29:55;;;;;;;0.53;0.50;;;16.50;99.90;;;;;;5096301;28;20943;-83
2022/08/21 01:32:22;;;;;;;0.40;0.40;;;16.50;99.90;;;;;;5096338;28;20529;-84
2022/08/21 01:34:52;;;;;;;0.40;0.30;;;16.60;99.90;;;;;;5096481;28;20448;-83
2022/08/21 01:37:19;;;;;;;0.70;0.70;;;16.60;99.90;;;;;;5096140;28;20455;-84
2022/08/21 01:39:48;;;;;;;1.20;0.50;;;16.60;99.90;;;;;;5096070;28;20947;-84
2022/08/21 01:42:15;;;;;;;0.97;0.63;;;16.50;99.90;;;;;;5095979;28;20470;-83
2022/08/21 01:44:42;;;;;;;0.40;0.40;;;16.50;99.90;;;;;;5096281;28;20451;-83
2022/08/21 01:47:11;;;;;;;0.60;0.53;;;16.50;99.90;;;;;;5095877;28;20482;-83
2022/08/21 01:49:39;;;;;;;0.50;0.40;;;16.40;99.90;;;;;;5096218;28;20475;-83
2022/08/21 01:52:07;;;;;;;4.40;0.50;;;16.40;99.90;;;;;;5096087;28;20475;-83
2022/08/21 01:54:34;;;;;;;0.70;0.40;;;16.40;99.90;;;;;;5096110;28;20448;-83
2022/08/21 01:57:02;;;;;;;1.13;0.43;;;16.40;99.90;;;;;;5096137;28;20448;-83
2022/08/21 01:59:29;;;;;;;1.63;0.97;;;16.40;99.90;;;;;;5096016;28;20456;-83
2022/08/21 02:01:57;;;;;;;0.50;0.40;;;16.40;99.90;;;;;;5095959;28;20470;-83
2022/08/21 02:04:24;;;;;;;0.60;0.60;;;16.30;99.90;;;;;;5095919;28;20482;-83
2022/08/21 02:06:51;;;;;;;0.43;0.37;;;16.30;99.90;;;;;;5095855;28;20480;-83
2022/08/21 02:09:19;;;;;;;0.60;0.60;;;16.20;99.90;;;;;;5095878;28;20455;-83
2022/08/21 02:11:46;;;;;;;0.60;0.43;;;16.20;99.90;;;;;;5095709;28;20475;-83
2022/08/21 02:14:16;;;;;;;0.60;0.50;;;16.10;99.90;;;;;;5095752;28;20443;-83
2022/08/21 02:16:44;;;;;;;0.80;0.50;;;16.10;99.90;;;;;;5095401;28;20429;-83
2022/08/21 02:19:12;;;;;;;0.70;0.60;;;16.10;99.90;;;;;;5095388;28;20452;-84
2022/08/21 02:21:39;;;;;;;0.40;0.40;;;16.00;99.90;;;;;;5095193;28;20825;-83
2022/08/21 02:24:07;;;;;;;0.70;0.40;;;16.00;99.90;;;;;;5095262;28;20482;-83
2022/08/21 02:26:34;;;;;;;1.13;0.60;;;15.90;99.90;;;;;;5095438;28;20471;-83
2022/08/21 02:29:01;;;;;;;0.73;0.40;;;16.00;99.90;;;;;;5095142;28;20452;-83
2022/08/21 02:31:29;;;;;;;0.40;0.40;;;15.90;99.90;;;;;;5095293;28;20468;-83
2022/08/21 02:33:56;;;;;;;0.63;0.60;;;15.90;99.90;;;;;;5095366;28;20501;-83
2022/08/21 02:36:23;;;;;;;0.63;0.57;;;15.90;99.90;;;;;;5095285;28;20440;-83
2022/08/21 02:38:50;;;;;;;0.50;0.50;;;15.90;99.90;;;;;;5094917;28;20974;-84
2022/08/21 02:41:20;;;;;;;2.73;0.57;;;15.90;99.90;;;;;;5094913;28;21044;-83
2022/08/21 02:43:47;;;;;;;0.67;0.67;;;15.80;99.90;;;;;;5095192;28;20436;-83
2022/08/21 02:46:17;;;;;;;0.40;0.30;;;15.80;99.90;;;;;;5094785;28;20837;-83
2022/08/21 02:48:46;;;;;;;0.50;0.50;;;15.70;99.90;;;;;;5095052;28;20494;-83
2022/08/21 02:51:14;;;;;;;0.43;0.40;;;15.70;99.90;;;;;;5094922;28;20478;-83
2022/08/21 02:53:42;;;;;;;0.93;0.63;;;15.60;99.90;;;;;;5095107;28;20919;-83
2022/08/21 02:56:10;;;;;;;0.40;0.40;;;15.60;99.90;;;;;;5094636;28;20974;-83
2022/08/21 02:58:42;;;;;;;0.93;0.60;;;15.60;99.90;;;;;;5094642;28;20440;-83
2022/08/21 03:01:09;;;;;;;0.30;0.30;;;15.70;99.90;;;;;;5094508;28;20493;-83
2022/08/21 03:03:37;;;;;;;0.80;0.50;;;15.60;99.90;;;;;;5094836;28;20454;-83
2022/08/21 03:06:07;;;;;;;1.03;0.50;;;15.60;99.90;;;;;;5094352;28;20476;-83
2022/08/21 03:08:34;;;;;;;0.40;0.30;;;15.60;99.90;;;;;;5094386;28;20437;-83
2022/08/21 03:11:01;;;;;;;2.40;0.70;;;15.60;99.90;;;;;;5094568;28;20831;-83
2022/08/21 03:13:28;;;;;;;2.00;0.50;;;15.60;99.90;;;;;;5094290;28;20946;-83
2022/08/21 03:15:56;;;;;;;1.13;0.87;;;15.60;99.90;;;;;;5094521;28;20448;-83
2022/08/21 03:18:23;;;;;;;1.13;1.00;;;15.50;99.90;;;;;;5094169;28;20966;-83
2022/08/21 03:20:50;;;;;;;1.40;0.60;;;15.60;99.90;;;;;;5094362;28;20470;-83
2022/08/21 03:23:18;;;;;;;0.60;0.60;;;15.50;99.90;;;;;;5094443;28;20452;-83
2022/08/21 03:25:46;;;;;;;2.93;0.60;;;15.50;99.90;;;;;;5093806;28;20502;-83
2022/08/21 03:28:16;;;;;;;0.60;0.60;;;15.50;99.90;;;;;;5094311;28;20448;-83
2022/08/21 03:30:45;;;;;;;0.80;0.50;;;15.50;99.90;;;;;;5094141;28;20451;-83
2022/08/21 03:33:12;;;;;;;0.50;0.40;;;15.40;99.90;;;;;;5094008;28;20456;-83
2022/08/21 03:35:40;;;;;;;0.60;0.50;;;15.40;99.90;;;;;;5093970;28;20447;-83
2022/08/21 03:38:07;;;;;;;0.73;0.50;;;15.40;99.90;;;;;;5094120;28;20450;-83
2022/08/21 03:40:35;;;;;;;0.70;0.50;;;15.30;99.90;;;;;;5094030;28;20448;-83
2022/08/21 03:43:02;;;;;;;1.17;0.60;;;15.30;99.90;;;;;;5094074;28;20446;-83
2022/08/21 03:45:29;;;;;;;0.77;0.50;;;15.30;99.90;;;;;;5094025;28;20440;-83
2022/08/21 03:47:58;;;;;;;0.80;0.50;;;15.30;99.90;;;;;;5094023;28;20446;-83
2022/08/21 03:50:26;;;;;;;0.40;0.40;;;15.20;99.90;;;;;;5093936;28;20447;-83
2022/08/21 03:52:53;;;;;;;1.50;0.60;;;15.20;99.90;;;;;;5093895;28;20444;-83
2022/08/21 03:55:20;;;;;;;0.77;0.70;;;15.10;99.90;;;;;;5093879;28;20447;-83
2022/08/21 03:57:48;;;;;;;0.50;0.50;;;15.10;99.90;;;;;;5093767;28;20838;-83
2022/08/21 04:00:17;;;;;;;0.57;0.53;;;15.10;99.90;;;;;;5093753;28;20452;-83
2022/08/21 04:02:44;;;;;;;0.90;0.40;;;15.00;99.90;;;;;;5093361;28;20472;-83
2022/08/21 04:05:12;;;;;;;0.50;0.50;;;15.10;99.90;;;;;;5093741;28;20448;-83
2022/08/21 04:07:39;;;;;;;0.80;0.70;;;15.10;99.90;;;;;;5093714;28;20808;-83
2022/08/21 04:10:07;;;;;;;0.67;0.67;;;15.00;99.90;;;;;;5093398;28;20923;-83
2022/08/21 04:12:34;;;;;;;0.40;0.40;;;15.00;99.90;;;;;;5093453;28;20986;-85
2022/08/21 04:15:03;;;;;;;0.40;0.30;;;15.00;99.90;;;;;;5093554;28;21053;-85
2022/08/21 04:17:29;;;;;;;1.23;0.53;;;15.00;99.90;;;;;;5093825;28;20978;-86
2022/08/21 04:19:56;;;;;;;0.50;0.33;;;15.10;99.90;;;;;;5093939;28;20447;-86
2022/08/21 04:22:23;;;;;;;0.50;0.43;;;15.00;99.90;;;;;;5094210;28;21002;-85
2022/08/21 04:24:49;;;;;;;0.60;0.50;;;15.00;99.90;;;;;;5094954;28;20491;-86
2022/08/21 04:27:16;;;;;;;0.50;0.50;;;14.90;99.90;;;;;;5095264;28;20444;-86
2022/08/21 04:29:43;;;;;;;0.43;0.43;;;14.90;99.90;;;;;;5094806;28;20451;-85
2022/08/21 04:32:11;;;;;;;0.60;0.37;;;14.90;99.90;;;;;;5095573;28;20468;-86
2022/08/21 04:34:38;;;;;;;0.80;0.80;;;14.80;99.90;;;;;;5095418;28;20443;-86
2022/08/21 04:37:05;;;;;;;0.60;0.60;;;14.90;99.90;;;;;;5095209;28;20475;-86
2022/08/21 04:39:31;;;;;;;0.40;0.40;;;14.80;99.90;;;;;;5095254;28;20444;-86
2022/08/21 04:41:58;;;;;;;0.60;0.60;;;14.80;99.90;;;;;;5093622;28;20448;-85
2022/08/21 04:44:25;;;;;;;0.50;0.50;;;14.80;99.90;;;;;;5093715;28;20455;-85
2022/08/21 04:46:52;;;;;;;0.63;0.40;;;14.80;99.90;;;;;;5095727;28;20435;-86
2022/08/21 04:49:20;;;;;;;0.93;0.50;;;14.80;99.90;;;;;;5097649;28;20444;-86
2022/08/21 04:51:47;;;;;;;0.80;0.50;;;14.90;99.90;;;;;;5097703;28;20479;-86
2022/08/21 04:54:17;;;;;;;0.70;0.70;;;14.80;99.90;;;;;;5097746;28;20459;-86
2022/08/21 04:56:49;;;;;;;0.47;0.47;;;14.80;99.90;;;;;;5097713;28;20468;-86
2022/08/21 04:59:19;;;;;;;0.87;0.63;;;14.80;99.90;;;;;;5097388;28;20428;-86
2022/08/21 05:01:46;;;;;;;0.40;0.30;;;14.90;99.90;;;;;;5098119;28;20475;-86
2022/08/21 05:04:17;;;;;;;0.90;0.50;;;14.90;99.90;;;;;;5097970;28;20450;-86
2022/08/21 05:06:47;;;;;;;0.50;0.50;;;14.90;99.90;;;;;;5097778;28;20452;-86
2022/08/21 05:09:17;;;;;;;0.40;0.40;;;14.90;99.90;;;;;;5097222;28;20440;-86
2022/08/21 05:11:44;;;;;;;0.70;0.40;;;14.90;99.90;;;;;;5097231;28;20463;-86
2022/08/21 05:14:11;;;;;;;0.60;0.50;;;15.00;99.90;;;;;;5097416;28;20440;-86
2022/08/21 05:16:38;;;;;;;1.77;1.00;;;15.00;99.90;;;;;;5102091;28;20574;-87
2022/08/21 05:19:05;;;;;;;0.50;0.50;;;15.10;99.90;;;;;;5097213;28;20471;-85
2022/08/21 05:21:32;;;;;;;1.23;0.57;;;15.10;99.90;;;;;;5097002;28;20467;-86
2022/08/21 05:24:00;;;;;;;0.50;0.50;;;15.20;99.90;;;;;;5096713;28;20852;-86
2022/08/21 05:26:26;;;;;;;1.07;0.40;;;15.20;99.90;;;;;;5097066;28;20463;-86
2022/08/21 05:28:53;;;;;;;1.13;0.40;;;15.20;99.90;;;;;;5096970;28;20439;-86
2022/08/21 05:31:20;;;;;;;0.60;0.60;;;15.20;99.90;;;;;;5096595;28;20452;-86
2022/08/21 05:33:47;;;;;;;0.50;0.50;;;15.30;99.90;;;;;;5096783;28;20447;-86
2022/08/21 05:36:14;;;;;;;1.77;1.50;;;15.40;99.90;;;;;;5096490;28;20807;-86
2022/08/21 05:38:41;;;;;;;0.70;0.70;;;15.40;99.90;;;;;;5096615;28;20484;-86
2022/08/21 05:41:09;;;;;;;0.50;0.50;;;15.50;99.90;;;;;;5096464;28;20823;-86
2022/08/21 05:43:36;;;;;;;0.70;0.70;;;15.50;99.90;;;;;;5096616;28;20820;-86
2022/08/21 05:46:04;;;;;;;0.60;0.60;;;15.60;99.90;;;;;;5096602;28;20802;-86
2022/08/21 05:48:31;;;;;;;0.50;0.50;;;15.70;99.90;;;;;;5096790;28;20444;-86
2022/08/21 05:51:04;;;;;;;0.50;0.40;;;15.70;99.90;;;;;;5096379;28;20811;-86
2022/08/21 05:53:30;;;;;;;0.50;0.50;;;15.80;99.90;;;;;;5096589;28;20881;-86
2022/08/21 05:55:57;;;;;;;0.40;0.40;;;15.90;99.90;;;;;;5096502;28;20450;-86
2022/08/21 05:58:25;;;;;;;2.30;0.60;;;16.00;99.90;;;;;;5095795;28;20490;-86
2022/08/21 06:00:53;;;;;;;0.50;0.50;;;16.20;99.90;;;;;;5096193;28;20464;-86
2022/08/21 06:03:21;;;;;;;1.07;1.07;;;16.30;99.90;;;;;;5096050;28;20497;-85
2022/08/21 06:05:48;;;;;;;0.50;0.50;;;16.50;99.90;;;;;;5096306;28;20455;-86
2022/08/21 06:08:16;;;;;;;2.00;0.73;;;16.70;99.90;;;;;;5096004;28;20439;-85
2022/08/21 06:10:42;;;;;;;1.30;1.30;;;16.90;99.90;;;;;;5096055;28;20451;-86
2022/08/21 06:13:10;;;;;;;1.00;0.47;;;17.00;99.90;;;;;;5096087;28;20448;-86
2022/08/21 06:15:38;;;;;;;1.13;0.63;;;17.10;99.90;;;;;;5095942;28;20450;-86
2022/08/21 06:18:05;;;;;;;1.87;0.83;;;17.30;99.90;;;;;;5095604;28;20483;-86
2022/08/21 06:20:32;;;;;;;1.63;0.60;;;17.40;99.90;;;;;;5095882;28;20448;-86
2022/08/21 06:22:59;;;;;;;1.70;0.70;;;17.60;99.90;;;;;;5095872;28;20454;-86
2022/08/21 06:25:26;;;;;;;2.00;0.97;;;17.70;99.90;;;;;;5095506;28;20844;-86
2022/08/21 06:27:53;;;;;;;0.40;0.40;;;17.80;99.90;;;;;;5095840;28;20443;-86
2022/08/21 06:30:20;;;;;;;0.90;0.40;;;18.00;99.90;;;;;;5095710;28;20455;-86
2022/08/21 06:32:48;;;;;;;1.03;0.50;;;18.20;99.90;;;;;;5095356;28;20471;-86
2022/08/21 06:35:15;;;;;;;0.93;0.70;;;18.30;99.90;;;;;;5095555;28;20456;-86
2022/08/21 06:37:41;;;;;;;5.53;0.60;;;18.50;99.90;;;;;;5095382;28;20480;-86
2022/08/21 06:40:09;;;;;;;1.80;0.90;;;18.70;99.90;;;;;;5095527;28;20451;-86
2022/08/21 06:42:36;;;;;;;0.87;0.80;;;18.80;99.90;;;;;;5095390;28;20471;-86
2022/08/21 06:45:03;;;;;;;0.40;0.40;;;19.00;99.90;;;;;;5095256;28;20448;-86
2022/08/21 06:47:30;;;;;;;3.37;1.10;;;19.10;99.90;;;;;;5095404;28;20444;-86
2022/08/21 06:49:58;;;;;;;1.63;0.60;;;19.20;99.90;;;;;;5095318;28;20452;-86
2022/08/21 06:52:25;;;;;;;2.00;0.60;;;19.20;99.90;;;;;;5095404;28;20464;-86
2022/08/21 06:54:52;;;;;;;2.00;0.70;;;19.40;99.90;;;;;;5095270;28;20927;-86
2022/08/21 06:57:18;;;;;;;0.80;0.80;;;19.60;99.90;;;;;;5095187;28;20478;-86
2022/08/21 06:59:45;;;;;;;2.67;0.70;;;19.70;99.90;;;;;;5095201;28;20526;-86
2022/08/21 07:02:12;;;;;;;0.60;0.60;;;19.80;99.90;;;;;;5095032;28;20475;-86
2022/08/21 07:04:39;;;;;;;1.47;0.70;;;20.00;99.90;;;;;;5095249;28;20444;-87
2022/08/21 07:07:07;;;;;;;0.63;0.60;;;20.10;99.90;;;;;;5095222;28;20951;-87
2022/08/21 07:09:33;;;;;;;1.70;0.97;;;20.20;99.90;;;;;;5094136;28;20452;-87
2022/08/21 07:12:00;;;;;;;0.70;0.70;;;20.30;99.90;;;;;;5094950;28;20471;-86
2022/08/21 07:14:27;;;;;;;1.17;1.00;;;20.40;99.90;;;;;;5095010;28;20440;-86
2022/08/21 07:16:54;;;;;;;1.43;0.83;;;20.60;99.90;;;;;;5095605;28;20808;-87
2022/08/21 07:19:21;;;;;;;0.60;0.60;;;20.70;99.90;;;;;;5095025;28;20853;-86
2022/08/21 07:21:48;;;;;;;0.87;0.70;;;20.90;99.90;;;;;;5094530;28;20460;-86
2022/08/21 07:24:16;;;;;;;0.80;0.70;;;20.90;99.90;;;;;;5094601;28;20484;-87
2022/08/21 07:26:43;;;;;;;0.70;0.70;;;21.00;99.90;;;;;;5094619;28;20939;-87
2022/08/21 07:29:10;;;;;;;0.80;0.67;;;21.00;99.90;;;;;;5094764;28;20439;-87
2022/08/21 07:31:36;;;;;;;0.80;0.80;;;21.10;99.90;;;;;;5094689;28;20459;-87
2022/08/21 07:34:03;;;;;;;1.10;0.80;;;21.20;99.90;;;;;;5094551;28;20435;-87
2022/08/21 07:36:30;;;;;;;4.40;1.00;;;21.50;99.90;;;;;;5094332;28;20431;-87
2022/08/21 07:38:57;;;;;;;4.37;1.10;;;21.80;99.90;;;;;;5094494;28;20498;-87
2022/08/21 07:41:28;;;;;;;0.70;0.70;;;22.00;99.90;;;;;;5094523;28;20474;-87
2022/08/21 07:43:55;;;;;;;0.70;0.70;;;22.30;99.90;;;;;;5094624;28;20978;-87
2022/08/21 07:46:22;;;;;;;0.83;0.83;;;22.40;99.90;;;;;;5094158;28;20450;-87
2022/08/21 07:48:48;;;;;;;1.20;0.70;;;22.30;99.90;;;;;;5094393;28;20454;-87
2022/08/21 07:51:17;;;;;;;1.50;0.90;;;22.40;99.90;;;;;;5094050;28;20474;-87
2022/08/21 07:53:49;;;;;;;0.80;0.80;;;22.50;99.90;;;;;;5094360;28;20447;-87
2022/08/21 07:56:17;;;;;;;3.40;0.83;;;22.60;99.90;;;;;;5094373;28;20485;-87
2022/08/21 07:58:45;;;;;;;1.30;1.00;;;22.70;99.90;;;;;;5094392;28;20825;-87
2022/08/21 08:01:12;;;;;;;1.20;0.80;;;22.80;99.90;;;;;;5094408;28;20463;-87
2022/08/21 08:03:39;;;;;;;4.80;1.20;;;22.90;99.90;;;;;;5094264;28;20452;-87
2022/08/21 08:06:08;;;;;;;1.47;1.00;;;23.00;99.90;;;;;;5094081;28;20505;-87
2022/08/21 08:08:35;;;;;;;2.00;1.07;;;23.10;99.90;;;;;;5094016;28;20435;-88
2022/08/21 08:11:02;;;;;;;1.67;1.03;;;23.20;99.90;;;;;;5093881;28;20731;-87
2022/08/21 08:13:29;;;;;;;1.70;0.97;;;23.40;99.90;;;;;;5093877;28;20193;-88
2022/08/21 08:15:57;;;;;;;0.97;0.93;;;23.50;99.90;;;;;;5094004;28;20490;-88
2022/08/21 08:18:24;;;;;;;0.70;0.70;;;23.70;99.90;;;;;;5094197;28;20221;-88
2022/08/21 08:20:51;;;;;;;1.48;1.00;;;23.80;99.90;;;;;;5093873;28;20228;-88
2022/08/21 08:23:17;;;;;;;0.82;0.60;;;23.90;99.90;;;;;;5094089;28;20668;-87
2022/08/21 08:25:44;;;;;;;2.78;0.77;;;24.10;99.90;;;;;;5093719;28;20229;-88
2022/08/21 08:28:11;;;;;;;1.58;0.88;;;24.20;99.90;;;;;;5094112;28;20197;-88
2022/08/21 08:30:38;;;;;;;3.92;2.28;;;24.40;99.90;;;;;;5093987;28;20201;-87
2022/08/21 08:33:06;;;;;;;2.03;0.80;;;24.50;99.60;;;;;;5093841;28;20206;-88
2022/08/21 08:35:33;;;;;;;3.13;1.10;;;24.50;99.00;;;;;;5093998;28;20201;-88
2022/08/21 08:38:00;;;;;;;1.10;0.68;;;24.50;98.30;;;;;;5093886;28;20225;-88
2022/08/21 08:40:35;;;;;;;1.60;0.80;;;24.60;97.30;;;;;;5094044;28;20201;-88
2022/08/21 08:43:02;;;;;;;1.30;0.50;;;24.70;96.00;;;;;;5094079;28;20611;-88
2022/08/21 08:45:39;;;;;;;1.35;0.80;;;24.80;95.40;;;;;;5093815;28;20208;-88
2022/08/21 08:48:13;;;;;;;0.70;0.70;;;24.80;95.00;;;;;;5093949;28;20204;-88
2022/08/21 08:50:45;;;;;;;0.98;0.60;;;24.90;94.70;;;;;;5093970;28;20276;-88
2022/08/21 08:53:16;;;;;;;1.10;0.80;;;25.10;93.90;;;;;;5095668;28;20201;-93
2022/08/21 08:55:45;;;;;;;1.52;0.80;;;25.10;94.00;;;;;;5094670;28;20203;-92
2022/08/21 08:58:18;;;;;;;1.42;0.80;;;25.20;92.90;;;;;;5094712;28;20221;-92
2022/08/21 09:00:49;;;;;;;1.50;0.90;;;25.40;92.50;;;;;;5094595;28;20549;-90
2022/08/21 09:03:18;;;;;;;0.75;0.70;;;25.60;92.50;;;;;;5094650;28;20186;-93
2022/08/21 09:05:48;;;;;;;0.70;0.70;;;25.70;92.90;;;;;;5094557;28;20202;-92
2022/08/21 09:08:54;;;;;;;0.82;0.60;;;26.00;92.60;;;;;;5094671;28;20539;-92
2022/08/21 09:11:28;;;;;;;4.30;1.10;;;26.00;92.00;;;;;;5089364;28;20221;-93
2022/08/21 09:14:04;;;;;;;0.80;0.75;;;25.80;91.80;;;;;;5094482;28;20190;-92
2022/08/21 09:16:39;;;;;;;1.30;1.02;;;25.30;92.30;;;;;;5094410;28;20189;-93
2022/08/21 09:19:16;;;;;;;0.80;0.70;;;24.80;92.70;;;;;;5095110;28;20232;-92
2022/08/21 09:21:50;;;;;;;1.20;1.10;;;24.40;92.90;;;;;;5094453;28;20225;-92
2022/08/21 09:24:30;;;;;;;0.60;0.60;;;24.10;92.60;;;;;;5094254;28;20250;-92
2022/08/21 09:27:05;;;;;;;0.90;0.90;;;23.80;92.70;;;;;;5094334;28;20275;-90
2022/08/21 09:29:36;;;;;;;1.10;0.80;;;23.50;93.50;;;;;;5094062;28;20185;-91
2022/08/21 09:32:04;;;;;;;0.60;0.60;;;23.30;94.10;;;;;;5094804;28;20766;-92
2022/08/21 09:34:33;;;;;;;0.47;0.47;;;23.20;94.10;;;;;;5097940;28;20244;-91
2022/08/21 09:37:00;;;;;;;1.13;0.70;;;23.40;94.00;;;;;;5097783;28;20197;-91
2022/08/21 09:39:29;;;;;;;2.40;1.00;;;23.50;94.00;;;;;;5097797;28;20217;-91
2022/08/21 09:41:57;;;;;;;1.20;0.70;;;23.50;94.50;;;;;;5097813;28;20228;-92
2022/08/21 09:44:28;;;;;;;1.27;0.97;;;23.40;94.00;;;;;;5097884;28;20201;-91
2022/08/21 09:46:55;;;;;;;0.60;0.60;;;23.30;93.30;;;;;;5097650;28;20551;-91
2022/08/21 09:49:34;;;;;;;0.80;0.80;;;23.20;94.50;;;;;;5097536;28;20295;-91
2022/08/21 09:52:02;;;;;;;0.90;0.80;;;23.10;94.00;;;;;;5097324;28;20479;-91
2022/08/21 09:54:32;;;;;;;2.30;1.57;;;23.20;94.70;;;;;;5097473;28;20459;-91
2022/08/21 09:59:48;;;;;;;1.77;0.77;;;24.30;92.60;;;;;;5097464;28;20262;-92
2022/08/21 10:02:25;;;;;;;0.53;0.53;;;24.70;91.80;;;;;;5097802;28;20235;-90
2022/08/21 10:04:55;;;;;;;2.07;0.80;;;24.90;91.90;;;;;;5097376;28;20236;-92
2022/08/21 10:07:25;;;;;;;0.90;0.90;;;24.90;91.90;;;;;;5097497;28;20212;-92
2022/08/21 10:10:00;;;;;;;0.70;0.70;;;24.90;91.30;;;;;;5097477;28;20224;-91
2022/08/21 10:12:34;;;;;;;1.67;0.50;;;24.60;91.30;;;;;;5097133;28;20221;-91
2022/08/21 10:15:11;;;;;;;0.70;0.67;;;24.40;92.10;;;;;;5097307;28;20190;-91
2022/08/21 10:17:53;;;;;;;0.80;0.70;;;24.30;92.30;;;;;;5097203;28;20640;-91
2022/08/21 10:20:27;;;;;;;1.60;0.85;;;24.10;92.30;;;;;;5097204;28;20556;-92
2022/08/21 10:23:07;;;;;;;2.35;0.90;;;24.30;91.90;;;;;;5096766;28;20186;-91
2022/08/21 10:25:39;;;;;;;3.03;0.77;;;24.30;91.40;;;;;;5096707;28;20237;-91
2022/08/21 10:28:12;;;;;;;0.70;0.70;;;24.50;91.30;;;;;;5097236;28;20197;-91
2022/08/21 10:30:47;;;;;;;1.08;0.70;;;24.70;91.00;;;;;;5096776;28;20219;-92
2022/08/21 10:33:27;;;;;;;1.63;0.90;;;24.80;90.60;;;;;;5096712;28;20637;-91
2022/08/21 10:36:03;;;;;;;0.70;0.60;;;24.90;90.40;;;;;;5096684;28;20656;-87
2022/08/21 10:38:54;;;;;;;1.75;0.90;;;25.10;90.30;;;;;;5095041;28;20208;-84
2022/08/21 10:41:33;;;;;;;2.63;0.70;;;25.20;90.00;;;;;;5092455;28;20225;-85
2022/08/21 10:44:08;;;;;;;3.40;0.70;;;25.60;89.20;;;;;;5095060;28;20193;-84
2022/08/21 10:46:47;;;;;;;0.70;0.70;;;26.10;87.50;;;;;;5095272;28;20181;-84
2022/08/21 10:49:22;;;;;;;1.63;1.25;;;26.50;83.90;;;;;;5094918;28;20185;-85
2022/08/21 10:51:56;;;;;;;0.85;0.75;;;26.90;84.00;;;;;;5094938;28;20241;-83
2022/08/21 10:54:33;;;;;;;0.82;0.77;;;27.10;82.50;;;;;;5095050;28;20185;-83
2022/08/21 10:57:06;;;;;;;1.63;0.80;;;27.50;78.80;;;;;;5094720;28;20664;-84
2022/08/21 10:59:42;;;;;;;1.85;0.50;;;27.70;77.60;;;;;;5094891;28;20209;-83
2022/08/21 11:02:17;;;;;;;1.42;0.82;;;27.80;76.90;;;;;;5094883;28;20243;-84
2022/08/21 11:04:53;;;;;;;0.68;0.68;;;28.00;76.50;;;;;;5094620;28;20196;-84
2022/08/21 11:07:27;;;;;;;1.10;0.88;;;28.30;75.60;;;;;;5094814;28;20185;-84
2022/08/21 11:09:57;;;;;;;2.05;0.60;;;28.50;73.70;;;;;;5094760;28;20186;-83
2022/08/21 11:12:28;;;;;;;0.95;0.55;;;28.50;75.00;;;;;;5094647;28;20232;-83
2022/08/21 11:14:59;;;;;;;0.90;0.82;;;28.10;74.80;;;;;;5094724;28;20190;-83
2022/08/21 11:17:33;;;;;;;0.55;0.55;;;27.90;73.50;;;;;;5094795;28;20197;-84
2022/08/21 11:20:06;;;;;;;1.40;0.70;;;27.50;73.10;;;;;;5094535;28;20256;-84
2022/08/21 11:22:41;;;;;;;0.70;0.70;;;27.20;72.80;;;;;;5094509;28;20221;-84
2022/08/21 11:25:14;;;;;;;0.63;0.63;;;26.70;73.50;;;;;;5093940;28;20579;-84
2022/08/21 11:27:45;;;;;;;1.67;0.85;;;26.30;74.20;;;;;;5094382;28;20193;-83
2022/08/21 11:30:12;;;;;;;0.77;0.77;;;26.00;75.10;;;;;;5094405;28;20178;-83
2022/08/21 11:33:02;;;;;;;0.70;0.70;;;25.70;76.70;;;;;;5094218;28;20236;-83
2022/08/21 11:35:37;;;;;;;1.00;0.70;;;25.40;77.10;;;;;;5094060;28;20205;-83
2022/08/21 11:38:19;;;;;;;0.98;0.60;;;25.30;77.40;;;;;;5093972;28;20661;-83
2022/08/21 11:41:00;;;;;;;1.45;0.73;;;25.20;78.10;;;;;;5094194;28;20177;-83
2022/08/21 11:43:36;;;;;;;0.70;0.70;;;25.00;78.10;;;;;;5093944;28;20189;-83
2022/08/21 11:46:17;;;;;;;2.25;0.80;;;24.90;78.20;;;;;;5093944;28;20177;-84
2022/08/21 11:49:05;;;;;;;1.60;0.70;;;24.90;77.90;;;;;;5094924;28;20523;-83
2022/08/21 11:51:37;;;;;;;1.80;0.60;;;24.80;79.50;;;;;;5093974;28;20665;-83
2022/08/21 11:54:13;;;;;;;0.77;0.77;;;24.70;79.20;;;;;;5093992;28;20548;-83
2022/08/21 11:56:46;;;;;;;1.00;0.90;;;24.60;79.90;;;;;;5093759;28;20263;-84
2022/08/21 11:59:20;;;;;;;0.80;0.80;;;24.70;81.60;;;;;;5093887;28;20228;-83
2022/08/21 12:01:50;;;;;;;0.60;0.60;;;24.80;82.10;;;;;;5093902;28;20723;-84
2022/08/21 12:04:23;;;;;;;2.08;1.10;;;25.00;80.80;;;;;;5093511;28;20244;-83
2022/08/21 12:06:50;;;;;;;0.82;0.82;;;25.20;80.00;;;;;;5093519;28;20641;-83
2022/08/21 12:09:34;;;;;;;1.88;0.82;;;25.50;80.10;;;;;;5093442;28;20209;-84
2022/08/21 12:12:03;;;;;;;1.50;0.90;;;25.70;79.20;;;;;;5093693;28;20638;-84
2022/08/21 12:14:39;;;;;;;1.38;0.65;;;25.80;77.80;;;;;;5093436;28;20694;-84
2022/08/21 12:17:08;;;;;;;0.70;0.60;;;25.70;77.80;;;;;;5093728;28;20188;-84
2022/08/21 12:19:36;;;;;;;0.70;0.70;;;25.60;76.90;;;;;;5093567;28;20217;-84
2022/08/21 12:22:11;;;;;;;0.75;0.70;;;25.40;78.00;;;;;;5093467;28;20224;-84
2022/08/21 12:24:42;;;;;;;0.70;0.70;;;25.50;77.60;;;;;;5093312;28;20236;-83
2022/08/21 12:27:25;;;;;;;2.80;0.98;;;25.40;78.10;;;;;;5094408;28;20189;-84
2022/08/21 12:29:54;;;;;;;0.70;0.70;;;25.20;80.10;;;;;;5093532;28;20178;-84
2022/08/21 12:32:27;;;;;;;2.15;1.27;;;25.10;81.40;;;;;;5093387;28;20228;-83
2022/08/21 12:35:01;;;;;;;1.58;1.17;;;25.10;80.40;;;;;;5093488;28;20185;-83
2022/08/21 12:37:37;;;;;;;2.15;0.70;;;25.20;79.30;;;;;;5093467;28;20185;-83
2022/08/21 12:40:14;;;;;;;1.02;0.73;;;25.10;78.60;;;;;;5093409;28;20205;-83
2022/08/21 12:42:45;;;;;;;1.05;0.90;;;25.00;79.00;;;;;;5093050;28;20225;-83
2022/08/21 12:45:21;;;;;;;1.00;0.73;;;24.80;79.80;;;;;;5093381;28;20280;-83
2022/08/21 12:47:51;;;;;;;0.63;0.50;;;24.80;80.30;;;;;;5093102;28;20542;-83
2022/08/21 12:50:22;;;;;;;0.80;0.70;;;24.70;81.80;;;;;;5093412;28;20182;-84
2022/08/21 12:52:57;;;;;;;1.08;0.80;;;24.60;81.40;;;;;;5093266;28;20230;-84
2022/08/21 12:55:31;;;;;;;1.75;0.85;;;24.60;83.50;;;;;;5093356;28;20185;-84
2022/08/21 12:57:58;;;;;;;0.60;0.60;;;24.50;82.50;;;;;;5093006;28;20652;-84
2022/08/21 13:00:27;;;;;;;2.88;0.95;;;24.60;82.50;;;;;;5093163;28;20490;-84
2022/08/21 13:02:55;;;;;;;1.15;0.73;;;24.60;83.60;;;;;;5093188;28;20224;-84